createdAt,value
2022-12-18T00:01:59.762Z,99649.06
2022-12-18T00:07:03.894Z,99649.03
2022-12-18T00:17:20.007Z,99655.03
2022-12-18T00:22:22.915Z,99653.28
2022-12-18T00:27:25.793Z,99654.16
2022-12-18T00:32:30.053Z,99666.16
2022-12-18T00:37:32.921Z,99654.00
2022-12-18T00:42:54.427Z,99642.88
2022-12-18T00:47:59.394Z,99654.06
2022-12-18T00:53:02.133Z,99655.81
2022-12-18T00:58:05.001Z,99673.00
2022-12-18T01:03:09.473Z,99673.00
2022-12-18T01:08:13.298Z,99664.31
2022-12-18T01:13:19.222Z,99674.69
2022-12-18T01:18:26.298Z,99674.66
2022-12-18T01:23:29.181Z,99664.28
2022-12-18T01:28:32.112Z,99669.53
2022-12-18T01:33:36.774Z,99667.78
2022-12-18T01:38:39.967Z,99659.13
2022-12-18T01:43:49.806Z,99659.94
2022-12-18T01:48:57.502Z,99664.28
2022-12-18T01:54:01.363Z,99678.06
2022-12-18T01:59:08.281Z,99672.00
2022-12-18T02:04:23.789Z,99671.94
2022-12-18T02:09:33.150Z,99662.41
2022-12-18T02:14:42.707Z,99656.31
2022-12-18T02:20:04.340Z,99667.50
2022-12-18T02:25:23.905Z,99657.94
2022-12-18T02:30:31.083Z,99655.34
2022-12-18T02:35:36.311Z,99651.03
2022-12-18T02:40:41.668Z,99651.94
2022-12-18T02:45:50.465Z,99665.66
2022-12-18T02:51:01.601Z,99656.19
2022-12-18T02:56:10.433Z,99657.06
2022-12-18T03:01:21.666Z,99649.25
2022-12-18T03:06:28.081Z,99662.06
2022-12-18T03:11:53.089Z,99664.63
2022-12-18T03:17:01.219Z,99646.53
2022-12-18T03:22:07.086Z,99643.88
2022-12-18T03:27:22.016Z,99653.34
2022-12-18T03:32:33.440Z,99642.22
2022-12-18T03:37:37.034Z,99644.72
2022-12-18T03:42:48.759Z,99636.97
2022-12-18T03:48:07.397Z,99636.97
2022-12-18T03:53:25.119Z,99637.78
2022-12-18T03:58:30.978Z,99632.59
2022-12-18T04:03:50.215Z,99634.31
2022-12-18T04:08:55.786Z,99614.44
2022-12-18T04:14:05.868Z,99610.97
2022-12-18T04:19:11.752Z,99610.97
2022-12-18T04:24:18.101Z,99599.75
2022-12-18T04:29:30.558Z,99605.81
2022-12-18T04:34:34.961Z,99622.09
2022-12-18T04:39:37.808Z,99622.09
2022-12-18T04:44:46.083Z,99626.38
2022-12-18T04:49:50.238Z,99635.75
2022-12-18T04:54:52.998Z,99620.25
2022-12-18T04:59:55.765Z,99616.72
2022-12-18T05:04:59.851Z,99623.56
2022-12-18T05:10:02.561Z,99619.19
2022-12-18T05:15:06.297Z,99628.56
2022-12-18T05:20:11.826Z,99631.97
2022-12-18T05:25:14.716Z,99633.72
2022-12-18T05:43:20.805Z,99612.03
2022-12-18T05:48:24.337Z,99611.19
2022-12-18T05:53:27.241Z,99615.44
2022-12-18T05:58:32.299Z,99612.78
2022-12-18T06:03:35.166Z,99613.56
2022-12-18T06:08:41.531Z,99608.38
2022-12-18T06:13:57.652Z,99612.44
2022-12-18T06:19:02.797Z,99632.22
2022-12-18T06:24:05.970Z,99624.41
2022-12-18T06:29:10.382Z,99639.72
2022-12-18T06:34:13.289Z,99656.06
2022-12-18T06:39:16.117Z,99650.00
2022-12-18T06:44:20.503Z,99656.13
2022-12-18T06:49:27.352Z,99645.00
2022-12-18T06:54:33.034Z,99654.38
2022-12-18T06:59:37.261Z,99663.88
2022-12-18T07:04:40.106Z,99655.34
2022-12-18T07:09:42.825Z,99661.44
2022-12-18T07:14:47.136Z,99632.38
2022-12-18T07:19:50.245Z,99634.78
2022-12-18T07:24:52.992Z,99644.28
2022-12-18T07:29:57.222Z,99647.84
2022-12-18T07:34:59.971Z,99640.22
2022-12-18T07:40:03.022Z,99645.38
2022-12-18T07:45:08.621Z,99651.38
2022-12-18T07:50:11.721Z,99655.88
2022-12-18T07:55:14.578Z,99651.81
2022-12-18T08:00:19.461Z,99663.13
2022-12-18T08:05:24.514Z,99640.25
2022-12-18T08:10:27.396Z,99646.44
2022-12-18T08:15:31.780Z,99645.72
2022-12-18T08:20:34.630Z,99648.59
2022-12-18T08:25:37.410Z,99641.97
2022-12-18T08:30:41.565Z,99627.53
2022-12-18T08:35:46.182Z,99612.19
2022-12-18T08:40:49.102Z,99608.91
2022-12-18T08:45:53.332Z,99604.69
2022-12-18T08:50:57.273Z,99596.09
2022-12-18T08:56:00.099Z,99601.28
2022-12-18T09:01:06.173Z,99599.56
2022-12-18T09:06:09.296Z,99613.34
2022-12-18T09:11:15.714Z,99613.31
2022-12-18T09:16:20.651Z,99611.41
2022-12-18T09:21:23.625Z,99618.16
2022-12-18T09:26:27.580Z,99617.13
2022-12-18T09:31:31.925Z,99614.38
2022-12-18T09:36:34.728Z,99607.34
2022-12-18T09:41:45.034Z,99625.53
2022-12-18T09:46:54.484Z,99633.38
2022-12-18T09:52:02.626Z,99628.09
2022-12-18T09:57:06.396Z,99616.41
2022-12-18T10:02:23.470Z,99597.13
2022-12-18T10:07:36.174Z,99587.59
2022-12-18T10:12:48.901Z,99590.13
2022-12-18T10:18:00.378Z,99597.56
2022-12-18T10:23:11.390Z,99596.69
2022-12-18T10:28:16.995Z,99583.16
2022-12-18T10:33:23.383Z,99587.22
2022-12-18T10:38:28.717Z,99588.94
2022-12-18T10:43:33.162Z,99579.47
2022-12-18T10:48:42.133Z,99574.81
2022-12-18T10:53:55.530Z,99578.38
2022-12-18T10:59:03.416Z,99572.78
2022-12-18T11:04:11.493Z,99558.75
2022-12-18T11:09:22.911Z,99568.47
2022-12-18T11:14:28.009Z,99555.59
2022-12-18T11:19:36.556Z,99554.03
2022-12-18T11:24:39.370Z,99562.59
2022-12-18T11:29:46.636Z,99549.16
2022-12-18T11:34:59.176Z,99552.25
2022-12-18T11:40:08.269Z,99547.59
2022-12-18T11:45:26.800Z,99556.97
2022-12-18T11:50:40.184Z,99554.13
2022-12-18T11:55:51.774Z,99557.88
2022-12-18T12:01:02.315Z,99545.66
2022-12-18T12:06:18.670Z,99535.09
2022-12-18T12:11:30.513Z,99542.53
2022-12-18T12:16:40.806Z,99541.66
2022-12-18T12:21:53.383Z,99530.50
2022-12-18T12:27:07.109Z,99527.66
2022-12-18T12:32:24.713Z,99523.28
2022-12-18T12:37:42.991Z,99524.09
2022-12-18T12:43:07.528Z,99532.59
2022-12-18T12:48:19.514Z,99529.94
2022-12-18T12:53:31.090Z,99517.72
2022-12-18T12:58:39.815Z,99511.72
2022-12-18T13:03:51.042Z,99500.75
2022-12-18T13:08:58.152Z,99493.28
2022-12-18T13:14:00.885Z,99503.44
2022-12-18T13:19:05.720Z,99500.22
2022-12-18T13:24:26.791Z,99485.59
2022-12-18T13:29:45.959Z,99495.09
2022-12-18T13:34:48.896Z,99487.19
2022-12-18T13:39:53.235Z,99493.34
2022-12-18T13:44:56.097Z,99487.38
2022-12-18T13:49:59.568Z,99485.84
2022-12-18T13:55:07.573Z,99483.44
2022-12-18T14:00:29.531Z,99471.19
2022-12-18T14:05:40.188Z,99473.88
2022-12-18T14:10:50.205Z,99493.06
2022-12-18T14:15:53.564Z,99495.88
2022-12-18T14:21:02.526Z,99493.50
2022-12-18T14:26:24.743Z,99511.00
2022-12-18T14:31:29.877Z,99511.75
2022-12-18T14:36:33.209Z,99491.22
2022-12-18T14:41:37.308Z,99491.22
2022-12-18T14:46:42.597Z,99500.84
2022-12-18T14:51:50.382Z,99497.38
2022-12-18T14:57:01.913Z,99488.81
2022-12-18T15:02:12.262Z,99487.97
2022-12-18T15:07:18.120Z,99479.38
2022-12-18T15:12:31.025Z,99483.75
2022-12-18T15:17:33.858Z,99482.88
2022-12-18T15:22:38.229Z,99476.91
2022-12-18T15:27:49.274Z,99476.91
2022-12-18T15:32:53.758Z,99481.28
2022-12-18T15:37:56.656Z,99470.91
2022-12-18T15:43:18.370Z,99459.75
2022-12-18T15:48:24.612Z,99470.13
2022-12-18T15:53:31.118Z,99474.47
2022-12-18T15:58:35.375Z,99477.97
2022-12-18T16:03:38.808Z,99480.56
2022-12-18T16:08:42.028Z,99478.81
2022-12-18T16:13:46.310Z,99489.22
2022-12-18T16:18:49.013Z,99484.97
2022-12-18T16:23:51.884Z,99467.63
2022-12-18T16:28:56.064Z,99465.06
2022-12-18T16:34:22.970Z,99458.13
2022-12-18T16:39:28.290Z,99448.66
2022-12-18T16:44:32.366Z,99469.34
2022-12-18T16:49:35.257Z,99461.59
2022-12-18T16:54:38.316Z,99456.41
2022-12-18T16:59:43.261Z,99440.91
2022-12-18T17:04:47.674Z,99445.19
2022-12-18T17:09:51.544Z,99426.16
2022-12-18T17:14:56.360Z,99434.78
2022-12-18T17:19:59.204Z,99432.19
2022-12-18T17:25:02.039Z,99422.66
2022-12-18T17:30:07.808Z,99426.94
2022-12-18T17:35:11.664Z,99431.25
2022-12-18T17:40:15.409Z,99422.56
2022-12-18T17:45:19.978Z,99419.94
2022-12-18T17:50:22.733Z,99420.78
2022-12-18T17:55:25.854Z,99425.94
2022-12-18T18:00:30.105Z,99427.63
2022-12-18T18:05:35.616Z,99430.22
2022-12-18T18:10:39.197Z,99425.84
2022-12-18T18:15:43.490Z,99424.09
2022-12-18T18:20:46.292Z,99410.22
2022-12-18T18:25:49.287Z,99408.47
2022-12-18T18:30:54.532Z,99409.34
2022-12-18T18:35:57.389Z,99404.09
2022-12-18T18:41:00.942Z,99389.34
2022-12-18T18:46:06.781Z,99378.03
2022-12-18T18:51:12.504Z,99366.78
2022-12-18T18:56:56.164Z,99366.75
2022-12-18T19:01:44.280Z,99350.25
2022-12-18T19:06:49.001Z,99361.47
2022-12-18T19:12:09.805Z,99358.84
2022-12-18T19:17:14.038Z,99358.75
2022-12-18T19:22:17.012Z,99353.53
2022-12-18T19:27:19.846Z,99347.41
2022-12-18T19:32:24.148Z,99339.56
2022-12-18T19:37:27.018Z,99342.91
2022-12-18T19:42:35.292Z,99329.03
2022-12-18T19:47:39.914Z,99341.13
2022-12-18T19:52:42.707Z,99339.34
2022-12-18T19:57:45.765Z,99335.84
2022-12-18T20:02:50.848Z,99346.97
2022-12-18T20:07:53.827Z,99355.59
2022-12-18T20:12:56.686Z,99363.41
2022-12-18T20:18:02.060Z,99359.03
2022-12-18T20:23:06.549Z,99346.00
2022-12-18T20:28:09.375Z,99342.53
2022-12-18T20:33:13.551Z,99338.22
2022-12-18T20:38:16.354Z,99324.22
2022-12-18T20:43:20.661Z,99325.00
2022-12-18T20:48:26.753Z,99338.88
2022-12-18T20:53:29.921Z,99339.66
2022-12-18T20:58:32.849Z,99337.88
2022-12-18T21:03:37.225Z,99328.25
2022-12-18T21:08:40.253Z,99329.03
2022-12-18T21:13:43.069Z,99333.47
2022-12-18T21:18:47.253Z,99347.25
2022-12-18T21:23:50.019Z,99340.34
2022-12-18T21:28:55.609Z,99339.38
2022-12-18T21:34:02.001Z,99350.63
2022-12-18T21:39:05.736Z,99341.03
2022-12-18T21:44:09.595Z,99332.28
2022-12-18T21:49:17.272Z,99328.75
2022-12-18T21:54:20.710Z,99323.47
2022-12-18T21:59:25.664Z,99324.31
2022-12-18T22:04:30.560Z,99326.88
2022-12-18T22:09:34.358Z,99325.97
2022-12-18T22:14:37.303Z,99326.81
2022-12-18T22:19:43.466Z,99318.09
2022-12-18T22:24:46.417Z,99319.78
2022-12-18T22:30:07.193Z,99312.78
2022-12-18T22:35:15.808Z,99311.84
2022-12-18T22:40:25.497Z,99297.94
2022-12-18T22:45:28.869Z,99301.31
2022-12-18T22:50:33.708Z,99299.59
2022-12-18T22:55:36.622Z,99286.50
2022-12-18T23:00:39.599Z,99293.31
2022-12-18T23:05:43.850Z,99297.81
2022-12-18T23:10:46.775Z,99283.84
2022-12-18T23:15:49.610Z,99273.38
2022-12-18T23:20:53.801Z,99265.47
2022-12-18T23:26:02.078Z,99263.75
2022-12-18T23:31:06.781Z,99261.06
2022-12-18T23:36:11.676Z,99257.53
2022-12-18T23:41:16.706Z,99255.81
2022-12-18T23:46:21.404Z,99247.88
2022-12-18T23:51:25.724Z,99256.47
2022-12-18T23:56:29.934Z,99256.41
